Time;durP1;ratioP1;P1;durP2;ratioP2;P2;SDS_P1;SDS_P2;PMS_P1;PMS_P2;Temp;Humidity;BMP_temperature;BMP_pressure;BME280_temperature;BME280_humidity;BME280_pressure;Samples;Min_cycle;Max_cycle;Signal;HPM_P1;HPM_P2
2021/09/10 00:00:04;;;;;;;;;;;20.80;65.70;;;;;;5014161;28;1022;-74
2021/09/10 00:02:29;;;;;;;;;;;20.90;65.50;;;;;;5013962;28;1132;-75
2021/09/10 00:04:55;;;;;;;;;;;20.90;65.60;;;;;;5014349;28;1275;-77
2021/09/10 00:07:20;;;;;;;;;;;20.90;65.50;;;;;;5015557;28;1366;-75
2021/09/10 00:09:46;;;;;;;;;;;20.90;65.50;;;;;;5016278;28;1069;-75
2021/09/10 00:12:11;;;;;;;;;;;20.80;65.30;;;;;;5020337;28;1204;-75
2021/09/10 00:14:37;;;;;;;;;;;20.80;65.50;;;;;;5019160;28;1330;-75
2021/09/10 00:17:02;;;;;;;;;;;20.80;65.50;;;;;;5019254;28;1258;-75
2021/09/10 00:19:27;;;;;;;;;;;20.80;65.60;;;;;;5020401;28;1964;-75
2021/09/10 00:21:53;;;;;;;;;;;20.80;65.70;;;;;;5018572;28;1069;-75
2021/09/10 00:24:18;;;;;;;;;;;20.80;65.70;;;;;;5016561;28;1217;-74
2021/09/10 00:26:44;;;;;;;;;;;20.80;65.80;;;;;;5016057;28;993;-74
2021/09/10 00:29:09;;;;;;;;;;;20.90;65.90;;;;;;5016357;28;1453;-76
2021/09/10 00:31:35;;;;;;;;;;;20.80;65.80;;;;;;5016090;28;1103;-76
2021/09/10 00:34:00;;;;;;;;;;;20.80;65.80;;;;;;5016205;28;1302;-76
2021/09/10 00:36:26;;;;;;;;;;;20.90;66.00;;;;;;5014456;28;1039;-76
2021/09/10 00:38:51;;;;;;;;;;;20.80;65.90;;;;;;5014825;28;1911;-76
2021/09/10 00:41:16;;;;;;;;;;;20.80;66.00;;;;;;5015975;28;1291;-76
2021/09/10 00:43:42;;;;;;;;;;;20.80;65.90;;;;;;5015732;28;1268;-76
2021/09/10 00:46:07;;;;;;;;;;;20.80;66.00;;;;;;4998090;28;1117;-76
2021/09/10 00:48:33;;;;;;;;;;;20.80;66.10;;;;;;5015132;28;1092;-76
2021/09/10 00:50:58;;;;;;;;;;;20.80;66.00;;;;;;5015189;28;1047;-76
2021/09/10 00:53:24;;;;;;;;;;;20.80;66.00;;;;;;5016322;28;1263;-77
2021/09/10 00:55:49;;;;;;;;;;;20.80;66.10;;;;;;5015922;28;1176;-77
2021/09/10 00:58:15;;;;;;;;;;;20.80;66.10;;;;;;5014911;28;1879;-77
2021/09/10 01:00:40;;;;;;;;;;;20.80;66.10;;;;;;5015557;28;1277;-77
2021/09/10 01:03:06;;;;;;;;;;;20.80;66.10;;;;;;4998985;28;1368;-76
2021/09/10 01:05:31;;;;;;;;;;;20.80;66.20;;;;;;5014747;28;1151;-73
2021/09/10 01:07:57;;;;;;;;;;;20.80;66.10;;;;;;5015209;28;1085;-76
2021/09/10 01:10:22;;;;;;;;;;;20.80;66.10;;;;;;5016865;28;1322;-75
2021/09/10 01:12:48;;;;;;;;;;;20.80;66.10;;;;;;5015032;28;1288;-74
2021/09/10 01:15:13;;;;;;;;;;;20.80;66.20;;;;;;4998173;28;1340;-75
2021/09/10 01:17:39;;;;;;;;;;;20.80;66.20;;;;;;5015023;28;1997;-74
2021/09/10 01:20:05;;;;;;;;;;;20.80;66.20;;;;;;5014578;28;1330;-75
2021/09/10 01:22:30;;;;;;;;;;;20.80;66.10;;;;;;5014304;28;1136;-74
2021/09/10 01:25:12;;;;;;;;;;;20.80;66.00;;;;;;5014035;28;1022;-76
2021/09/10 01:27:41;;;;;;;;;;;20.80;66.00;;;;;;5014055;28;1116;-76
2021/09/10 01:30:07;;;;;;;;;;;20.80;66.00;;;;;;4997757;28;1682;-75
2021/09/10 01:32:33;;;;;;;;;;;20.80;66.10;;;;;;5015073;28;1259;-75
2021/09/10 01:34:58;;;;;;;;;;;20.80;66.10;;;;;;5016768;28;1104;-76
2021/09/10 01:37:23;;;;;;;;;;;20.80;66.10;;;;;;5000027;28;2033;-75
2021/09/10 01:39:50;;;;;;;;;;;20.80;66.10;;;;;;4999800;28;1259;-76
2021/09/10 01:42:16;;;;;;;;;;;20.80;66.20;;;;;;5014476;28;1399;-75
2021/09/10 01:44:41;;;;;;;;;;;20.80;66.10;;;;;;4999295;28;1364;-75
2021/09/10 01:47:06;;;;;;;;;;;20.80;66.10;;;;;;5015967;28;1053;-75
2021/09/10 01:49:32;;;;;;;;;;;20.80;66.10;;;;;;5016009;28;1148;-75
2021/09/10 01:51:57;;;;;;;;;;;20.80;66.00;;;;;;4999602;28;938;-75
2021/09/10 01:54:23;;;;;;;;;;;20.80;66.10;;;;;;5015844;28;1322;-75
2021/09/10 01:56:48;;;;;;;;;;;20.80;66.10;;;;;;5014648;28;1151;-75
2021/09/10 01:59:14;;;;;;;;;;;20.80;66.00;;;;;;4999218;28;1902;-75
2021/09/10 02:01:39;;;;;;;;;;;20.80;66.00;;;;;;5015545;28;1299;-76
2021/09/10 02:04:10;;;;;;;;;;;20.80;66.00;;;;;;5016798;28;1304;-76
2021/09/10 02:06:38;;;;;;;;;;;20.80;65.90;;;;;;5017054;28;1321;-76
2021/09/10 02:09:24;;;;;;;;;;;20.80;66.00;;;;;;5016414;28;1100;-76
2021/09/10 02:11:52;;;;;;;;;;;20.80;66.00;;;;;;5002685;28;1671;-76
2021/09/10 02:14:28;;;;;;;;;;;20.80;65.90;;;;;;5017292;28;1345;-76
2021/09/10 02:16:55;;;;;;;;;;;20.80;65.90;;;;;;5016129;28;1471;-76
2021/09/10 02:19:22;;;;;;;;;;;20.80;65.90;;;;;;5015436;28;1894;-77
2021/09/10 02:21:47;;;;;;;;;;;20.80;66.00;;;;;;5000514;28;1613;-78
2021/09/10 02:24:13;;;;;;;;;;;20.80;65.90;;;;;;5018913;28;1257;-76
2021/09/10 02:26:38;;;;;;;;;;;20.80;65.90;;;;;;4999263;28;1346;-77
2021/09/10 02:29:04;;;;;;;;;;;20.80;66.00;;;;;;5019214;28;1325;-77
2021/09/10 02:31:29;;;;;;;;;;;20.80;65.90;;;;;;5017143;28;1322;-76
2021/09/10 02:33:55;;;;;;;;;;;20.80;66.10;;;;;;5015763;28;1226;-77
2021/09/10 02:36:22;;;;;;;;;;;20.80;65.90;;;;;;4999521;28;1339;-77
2021/09/10 02:38:47;;;;;;;;;;;20.90;66.00;;;;;;4987573;28;1910;-76
2021/09/10 02:41:12;;;;;;;;;;;20.80;65.80;;;;;;5013224;28;1367;-76
2021/09/10 02:43:38;;;;;;;;;;;20.80;65.90;;;;;;4998022;28;1380;-75
2021/09/10 02:46:09;;;;;;;;;;;20.80;65.90;;;;;;5014276;28;1132;-77
2021/09/10 02:48:34;;;;;;;;;;;20.80;65.80;;;;;;5015791;28;1349;-76
2021/09/10 02:51:00;;;;;;;;;;;20.80;65.90;;;;;;5014799;28;1072;-76
2021/09/10 02:53:26;;;;;;;;;;;20.80;65.90;;;;;;5015844;28;1425;-76
2021/09/10 02:55:56;;;;;;;;;;;20.80;65.90;;;;;;5014185;28;1182;-76
2021/09/10 02:58:21;;;;;;;;;;;20.80;65.80;;;;;;5014295;28;1961;-76
2021/09/10 03:00:47;;;;;;;;;;;20.80;65.80;;;;;;4998729;28;1170;-76
2021/09/10 03:03:12;;;;;;;;;;;20.80;65.80;;;;;;5015434;28;1390;-76
2021/09/10 03:05:38;;;;;;;;;;;20.80;65.80;;;;;;5015683;28;1129;-76
2021/09/10 03:08:03;;;;;;;;;;;20.80;65.80;;;;;;5016502;28;1166;-76
2021/09/10 03:10:28;;;;;;;;;;;20.80;65.80;;;;;;5018634;28;1160;-77
2021/09/10 03:12:54;;;;;;;;;;;20.80;65.80;;;;;;5015634;28;1270;-76
2021/09/10 03:15:19;;;;;;;;;;;20.80;65.90;;;;;;5015407;28;1328;-76
2021/09/10 03:17:45;;;;;;;;;;;20.80;65.90;;;;;;5014943;28;1973;-76
2021/09/10 03:20:11;;;;;;;;;;;20.80;65.90;;;;;;5016050;28;1170;-76
2021/09/10 03:22:36;;;;;;;;;;;20.80;65.80;;;;;;5015272;28;1217;-77
2021/09/10 03:25:02;;;;;;;;;;;20.80;66.00;;;;;;5015517;28;1076;-76
2021/09/10 03:27:28;;;;;;;;;;;20.80;65.90;;;;;;5015908;28;1287;-76
2021/09/10 03:29:53;;;;;;;;;;;20.80;65.90;;;;;;5015959;28;1047;-76
2021/09/10 03:32:19;;;;;;;;;;;20.80;65.90;;;;;;5015973;28;1340;-76
2021/09/10 03:34:44;;;;;;;;;;;20.80;65.90;;;;;;5015509;28;1295;-76
2021/09/10 03:37:11;;;;;;;;;;;20.80;66.70;;;;;;5015736;28;1064;-76
2021/09/10 03:39:37;;;;;;;;;;;20.80;65.90;;;;;;5015912;28;1910;-76
2021/09/10 03:42:02;;;;;;;;;;;20.80;65.90;;;;;;5016295;28;1077;-76
2021/09/10 03:44:28;;;;;;;;;;;20.80;65.90;;;;;;5016174;28;1256;-76
2021/09/10 03:46:53;;;;;;;;;;;20.80;65.80;;;;;;5018717;28;1275;-76
2021/09/10 03:49:18;;;;;;;;;;;20.80;65.90;;;;;;5016054;28;1345;-76
2021/09/10 03:51:44;;;;;;;;;;;20.80;65.90;;;;;;5010540;28;1065;-76
2021/09/10 03:54:09;;;;;;;;;;;20.80;65.90;;;;;;5018406;28;1351;-76
2021/09/10 03:56:35;;;;;;;;;;;20.80;65.80;;;;;;5019114;28;1215;-76
2021/09/10 03:59:00;;;;;;;;;;;20.80;65.90;;;;;;5019089;28;1918;-76
2021/09/10 04:01:25;;;;;;;;;;;20.80;65.90;;;;;;5019541;28;1147;-76
2021/09/10 04:03:51;;;;;;;;;;;20.80;66.00;;;;;;5018090;28;1278;-76
2021/09/10 04:06:16;;;;;;;;;;;20.80;66.00;;;;;;5019269;28;1272;-76
2021/09/10 04:08:42;;;;;;;;;;;20.80;65.90;;;;;;5019440;28;1111;-76
2021/09/10 04:11:07;;;;;;;;;;;20.80;66.00;;;;;;5019163;28;1080;-76
2021/09/10 04:13:33;;;;;;;;;;;20.80;65.80;;;;;;5019723;28;1384;-76
2021/09/10 04:15:58;;;;;;;;;;;20.70;65.80;;;;;;5018866;28;1138;-76
2021/09/10 04:18:24;;;;;;;;;;;20.70;65.80;;;;;;5018765;28;1894;-76
2021/09/10 04:20:49;;;;;;;;;;;20.80;65.90;;;;;;5018951;28;1301;-76
2021/09/10 04:23:14;;;;;;;;;;;20.80;65.90;;;;;;5018625;28;1332;-76
2021/09/10 04:25:40;;;;;;;;;;;20.70;65.90;;;;;;5018998;28;1223;-76
2021/09/10 04:28:07;;;;;;;;;;;20.70;65.80;;;;;;5017496;28;1287;-76
2021/09/10 04:30:32;;;;;;;;;;;20.70;65.80;;;;;;5018998;28;1016;-76
2021/09/10 04:32:58;;;;;;;;;;;20.70;65.80;;;;;;5018696;28;1276;-76
2021/09/10 04:35:23;;;;;;;;;;;20.70;65.90;;;;;;5018750;28;1143;-77
2021/09/10 04:37:49;;;;;;;;;;;20.70;65.90;;;;;;5018961;28;1955;-76
2021/09/10 04:40:14;;;;;;;;;;;20.70;65.80;;;;;;5018730;28;1365;-76
2021/09/10 04:42:40;;;;;;;;;;;20.70;65.90;;;;;;5018579;28;1386;-76
2021/09/10 04:45:05;;;;;;;;;;;20.70;65.90;;;;;;5017521;28;1156;-76
2021/09/10 04:47:31;;;;;;;;;;;20.70;65.80;;;;;;5017802;28;1069;-76
2021/09/10 04:49:56;;;;;;;;;;;20.70;65.90;;;;;;5018993;28;1206;-76
2021/09/10 04:52:22;;;;;;;;;;;20.70;66.00;;;;;;5018258;28;1310;-76
2021/09/10 04:54:47;;;;;;;;;;;20.70;66.00;;;;;;5019052;28;1283;-76
2021/09/10 04:57:13;;;;;;;;;;;20.70;66.00;;;;;;5016297;28;1088;-76
2021/09/10 04:59:38;;;;;;;;;;;20.70;66.10;;;;;;5018864;28;1969;-76
2021/09/10 05:02:03;;;;;;;;;;;20.70;66.10;;;;;;5016716;28;1320;-76
2021/09/10 05:04:29;;;;;;;;;;;20.70;66.10;;;;;;5018053;28;1295;-76
2021/09/10 05:06:54;;;;;;;;;;;20.70;66.20;;;;;;5017505;28;1229;-76
2021/09/10 05:09:20;;;;;;;;;;;20.70;66.20;;;;;;5019219;28;1096;-76
2021/09/10 05:11:45;;;;;;;;;;;20.70;66.30;;;;;;5016867;28;1269;-75
2021/09/10 05:14:11;;;;;;;;;;;20.70;66.40;;;;;;5018051;28;1302;-76
2021/09/10 05:16:36;;;;;;;;;;;20.70;67.20;;;;;;5017439;28;1076;-76
2021/09/10 05:19:02;;;;;;;;;;;20.70;66.40;;;;;;5018245;28;1961;-76
2021/09/10 05:21:28;;;;;;;;;;;20.70;66.40;;;;;;5016723;28;1139;-76
2021/09/10 05:23:53;;;;;;;;;;;20.70;66.40;;;;;;4997502;28;1305;-76
2021/09/10 05:26:18;;;;;;;;;;;20.70;66.50;;;;;;5012507;28;1121;-75
2021/09/10 05:28:45;;;;;;;;;;;20.70;66.50;;;;;;5017404;28;1069;-75
2021/09/10 05:31:11;;;;;;;;;;;20.70;66.50;;;;;;5018675;28;1334;-75
2021/09/10 05:33:36;;;;;;;;;;;20.70;66.50;;;;;;5016388;28;2321;-73
2021/09/10 05:36:02;;;;;;;;;;;20.70;66.50;;;;;;5009245;28;2091;-73
2021/09/10 05:38:27;;;;;;;;;;;20.70;66.50;;;;;;5023672;28;1886;-74
2021/09/10 05:40:52;;;;;;;;;;;20.70;66.60;;;;;;5036043;28;1302;-73
2021/09/10 05:43:18;;;;;;;;;;;20.70;66.60;;;;;;5016595;28;1323;-73
2021/09/10 05:45:43;;;;;;;;;;;20.70;66.60;;;;;;5015942;28;1116;-74
2021/09/10 05:48:09;;;;;;;;;;;20.70;66.60;;;;;;5017115;28;1383;-73
2021/09/10 05:50:34;;;;;;;;;;;20.70;66.60;;;;;;5017531;28;1171;-73
2021/09/10 05:53:00;;;;;;;;;;;20.70;66.60;;;;;;5016325;28;1335;-73
2021/09/10 05:55:26;;;;;;;;;;;20.70;66.60;;;;;;5016591;28;1352;-74
2021/09/10 05:57:51;;;;;;;;;;;20.70;66.70;;;;;;5016188;28;1902;-73
2021/09/10 06:00:17;;;;;;;;;;;20.70;66.60;;;;;;5014894;28;1406;-74
2021/09/10 06:02:42;;;;;;;;;;;20.80;66.70;;;;;;5014414;28;1257;-74
2021/09/10 06:05:08;;;;;;;;;;;20.80;67.00;;;;;;5014513;28;1065;-74
2021/09/10 06:07:33;;;;;;;;;;;20.80;67.20;;;;;;5013626;28;1303;-74
2021/09/10 06:09:59;;;;;;;;;;;20.70;67.50;;;;;;5014125;28;1217;-74
2021/09/10 06:12:24;;;;;;;;;;;20.80;67.70;;;;;;5014360;28;1096;-74
2021/09/10 06:14:50;;;;;;;;;;;20.80;67.70;;;;;;5014157;28;1173;-74
2021/09/10 06:17:15;;;;;;;;;;;20.80;68.10;;;;;;5012790;28;1353;-74
2021/09/10 06:19:41;;;;;;;;;;;20.80;68.10;;;;;;5014060;28;1949;-74
2021/09/10 06:22:06;;;;;;;;;;;20.80;68.10;;;;;;5014214;28;1292;-74
2021/09/10 06:24:32;;;;;;;;;;;20.80;68.10;;;;;;5013889;28;1194;-73
2021/09/10 06:26:57;;;;;;;;;;;20.80;68.30;;;;;;5013839;28;1136;-74
2021/09/10 06:29:22;;;;;;;;;;;20.80;68.40;;;;;;5013947;28;1068;-74
2021/09/10 06:31:50;;;;;;;;;;;20.80;68.30;;;;;;5013945;28;1323;-74
2021/09/10 06:34:20;;;;;;;;;;;20.80;68.20;;;;;;5013905;28;1327;-74
2021/09/10 06:36:46;;;;;;;;;;;20.80;68.60;;;;;;5000718;28;957;-74
2021/09/10 06:39:11;;;;;;;;;;;20.80;68.40;;;;;;5013680;28;2040;-74
2021/09/10 06:41:37;;;;;;;;;;;20.90;68.50;;;;;;5014422;28;1331;-74
2021/09/10 06:44:02;;;;;;;;;;;20.90;68.50;;;;;;5013558;28;1274;-74
2021/09/10 06:46:27;;;;;;;;;;;20.80;68.70;;;;;;5012309;28;1241;-74
2021/09/10 06:48:53;;;;;;;;;;;20.80;68.70;;;;;;5013547;28;1262;-75
2021/09/10 06:51:18;;;;;;;;;;;20.90;68.80;;;;;;5013763;28;1168;-75
2021/09/10 06:53:44;;;;;;;;;;;20.90;69.60;;;;;;5012258;28;1225;-75
2021/09/10 06:56:09;;;;;;;;;;;20.90;69.00;;;;;;5013206;28;1194;-75
2021/09/10 06:58:34;;;;;;;;;;;20.90;68.90;;;;;;5012203;28;1910;-75
2021/09/10 07:01:00;;;;;;;;;;;20.90;69.00;;;;;;5013467;28;1109;-75
2021/09/10 07:03:25;;;;;;;;;;;20.90;69.00;;;;;;5013420;28;1367;-76
2021/09/10 07:05:51;;;;;;;;;;;20.90;69.10;;;;;;5013309;28;1104;-76
2021/09/10 07:08:16;;;;;;;;;;;20.90;69.10;;;;;;5013671;28;1053;-75
2021/09/10 07:10:42;;;;;;;;;;;20.90;69.20;;;;;;4995860;28;1117;-75
2021/09/10 07:13:07;;;;;;;;;;;20.90;69.20;;;;;;5013301;28;1376;-79
2021/09/10 07:15:33;;;;;;;;;;;20.90;69.40;;;;;;5016368;28;1280;-76
2021/09/10 07:17:58;;;;;;;;;;;20.90;69.40;;;;;;4998774;28;1894;-76
2021/09/10 07:20:24;;;;;;;;;;;20.90;69.50;;;;;;4999104;28;1567;-76
2021/09/10 07:22:49;;;;;;;;;;;20.90;69.60;;;;;;4998700;28;1492;-76
2021/09/10 07:25:15;;;;;;;;;;;20.90;69.60;;;;;;4989455;28;1404;-76
2021/09/10 07:27:40;;;;;;;;;;;20.90;69.70;;;;;;4978726;28;1405;-75
2021/09/10 07:30:06;;;;;;;;;;;20.90;70.00;;;;;;4994773;28;1328;-76
2021/09/10 07:32:31;;;;;;;;;;;20.90;70.10;;;;;;5015924;28;1453;-76
2021/09/10 07:34:57;;;;;;;;;;;20.90;70.10;;;;;;4998120;28;1224;-76
2021/09/10 07:37:27;;;;;;;;;;;20.90;70.30;;;;;;5016361;28;1173;-77
2021/09/10 07:39:56;;;;;;;;;;;20.90;70.20;;;;;;4988458;28;1906;-77
2021/09/10 07:42:22;;;;;;;;;;;20.90;70.40;;;;;;5017245;28;1146;-77
2021/09/10 07:44:48;;;;;;;;;;;20.90;70.50;;;;;;5017898;28;1404;-77
2021/09/10 07:47:15;;;;;;;;;;;20.90;70.60;;;;;;5000087;28;1346;-77
2021/09/10 07:49:41;;;;;;;;;;;20.90;70.80;;;;;;5009338;28;1225;-77
2021/09/10 07:52:06;;;;;;;;;;;20.90;70.70;;;;;;5011135;28;1140;-77
2021/09/10 07:54:32;;;;;;;;;;;20.90;70.70;;;;;;5000399;28;1343;-77
2021/09/10 07:56:57;;;;;;;;;;;20.90;70.70;;;;;;5016374;28;1131;-77
2021/09/10 07:59:23;;;;;;;;;;;20.90;70.70;;;;;;5013707;28;1963;-77
2021/09/10 08:01:48;;;;;;;;;;;20.90;71.00;;;;;;5014355;28;1092;-77
2021/09/10 08:04:13;;;;;;;;;;;20.90;71.10;;;;;;5012987;28;1224;-77
2021/09/10 08:06:39;;;;;;;;;;;20.90;70.90;;;;;;5012918;28;1470;-76
2021/09/10 08:09:04;;;;;;;;;;;20.90;71.30;;;;;;5014004;28;1073;-77
2021/09/10 08:11:30;;;;;;;;;;;20.90;71.10;;;;;;5014276;28;1147;-77
2021/09/10 08:13:56;;;;;;;;;;;20.90;71.50;;;;;;5014929;28;1394;-77
2021/09/10 08:16:22;;;;;;;;;;;21.00;71.60;;;;;;4985858;28;1162;-77
2021/09/10 08:18:47;;;;;;;;;;;20.90;71.40;;;;;;5017274;28;1965;-77
2021/09/10 08:21:13;;;;;;;;;;;21.00;71.40;;;;;;5017235;28;1406;-76
2021/09/10 08:23:38;;;;;;;;;;;21.00;71.40;;;;;;5016545;28;1306;-77
2021/09/10 08:26:04;;;;;;;;;;;21.00;71.50;;;;;;4999586;28;1100;-77
2021/09/10 08:28:29;;;;;;;;;;;21.00;71.50;;;;;;5016125;28;1366;-77
2021/09/10 08:30:54;;;;;;;;;;;21.00;71.40;;;;;;5018447;28;1053;-77
2021/09/10 08:33:20;;;;;;;;;;;21.00;71.80;;;;;;5020532;28;1292;-77
2021/09/10 08:35:45;;;;;;;;;;;21.00;71.60;;;;;;5003236;28;1335;-77
2021/09/10 08:38:11;;;;;;;;;;;21.00;71.90;;;;;;4997814;28;1911;-77
2021/09/10 08:40:36;;;;;;;;;;;21.00;71.60;;;;;;5011880;28;1097;-77
2021/09/10 08:43:02;;;;;;;;;;;21.00;71.60;;;;;;5001994;28;1260;-77
2021/09/10 08:45:27;;;;;;;;;;;21.00;71.70;;;;;;5017305;28;1072;-78
2021/09/10 08:47:53;;;;;;;;;;;21.00;71.70;;;;;;5016757;28;1222;-77
2021/09/10 08:50:18;;;;;;;;;;;21.00;72.00;;;;;;5003175;28;1298;-76
2021/09/10 08:52:44;;;;;;;;;;;21.00;72.30;;;;;;5014378;28;1318;-77
2021/09/10 08:55:09;;;;;;;;;;;21.00;72.40;;;;;;5016602;28;1097;-77
2021/09/10 08:57:36;;;;;;;;;;;21.10;73.20;;;;;;5016303;28;1966;-77
2021/09/10 09:00:03;;;;;;;;;;;21.10;73.10;;;;;;5016860;28;1064;-77
2021/09/10 09:02:28;;;;;;;;;;;21.10;72.70;;;;;;4999078;28;1321;-77
2021/09/10 09:04:55;;;;;;;;;;;21.20;72.80;;;;;;5016382;28;1251;-77
2021/09/10 09:07:21;;;;;;;;;;;21.20;71.80;;;;;;5015333;28;1187;-77
2021/09/10 09:09:47;;;;;;;;;;;21.20;72.30;;;;;;5015490;28;1214;-76
2021/09/10 09:12:23;;;;;;;;;;;21.20;72.80;;;;;;5015817;28;1311;-76
2021/09/10 09:14:52;;;;;;;;;;;21.20;73.30;;;;;;4997029;28;1262;-77
2021/09/10 09:17:21;;;;;;;;;;;21.20;72.80;;;;;;5016249;28;1315;-77
2021/09/10 09:20:06;;;;;;;;;;;21.20;72.80;;;;;;5016610;28;1891;-77
2021/09/10 09:22:33;;;;;;;;;;;21.20;72.90;;;;;;5017654;28;1127;-77
2021/09/10 09:25:08;;;;;;;;;;;21.20;72.70;;;;;;5016475;28;1231;-77
2021/09/10 09:27:33;;;;;;;;;;;21.20;72.80;;;;;;5014961;28;1296;-77
2021/09/10 09:29:59;;;;;;;;;;;21.20;73.50;;;;;;5015509;28;1068;-77
2021/09/10 09:32:24;;;;;;;;;;;21.20;72.40;;;;;;5015315;28;1332;-77
2021/09/10 09:34:50;;;;;;;;;;;21.20;72.50;;;;;;5014688;28;1202;-76
2021/09/10 09:37:16;;;;;;;;;;;21.20;72.50;;;;;;4998337;28;1335;-77
2021/09/10 09:39:51;;;;;;;;;;;21.30;73.10;;;;;;5016276;28;2005;-77
2021/09/10 09:42:22;;;;;;;;;;;21.30;72.70;;;;;;5015749;28;1279;-77
2021/09/10 09:45:06;;;;;;;;;;;21.30;72.60;;;;;;5018458;28;1841;-77
2021/09/10 09:47:31;;;;;;;;;;;21.30;73.40;;;;;;5015925;28;1112;-78
2021/09/10 09:50:04;;;;;;;;;;;21.30;73.70;;;;;;5023764;28;1079;-76
2021/09/10 09:52:30;;;;;;;;;;;21.30;73.40;;;;;;5013041;28;1215;-76
2021/09/10 09:54:55;;;;;;;;;;;21.30;72.60;;;;;;5004721;28;1378;-76
2021/09/10 09:57:21;;;;;;;;;;;21.30;72.80;;;;;;5013931;28;1108;-76
2021/09/10 09:59:46;;;;;;;;;;;21.40;72.90;;;;;;5013488;28;1902;-76
2021/09/10 10:02:12;;;;;;;;;;;21.40;72.90;;;;;;5014022;28;1318;-77
2021/09/10 10:04:37;;;;;;;;;;;21.40;72.60;;;;;;5013261;28;1283;-76
2021/09/10 10:07:03;;;;;;;;;;;21.40;73.30;;;;;;5015157;28;1387;-76
2021/09/10 10:09:29;;;;;;;;;;;21.40;72.80;;;;;;5014668;28;993;-75
2021/09/10 10:11:54;;;;;;;;;;;21.40;73.40;;;;;;4997899;28;1347;-78
2021/09/10 10:14:29;;;;;;;;;;;21.40;72.90;;;;;;4997524;28;1295;-78
2021/09/10 10:16:55;;;;;;;;;;;21.40;72.60;;;;;;5014622;28;1363;-77
2021/09/10 10:19:20;;;;;;;;;;;21.40;73.20;;;;;;5013136;28;1964;-76
2021/09/10 10:21:51;;;;;;;;;;;21.40;72.90;;;;;;5020934;28;1839;-76
2021/09/10 10:24:35;;;;;;;;;;;21.40;73.40;;;;;;5017215;28;1315;-76
2021/09/10 10:27:20;;;;;;;;;;;21.40;73.70;;;;;;5020926;28;1213;-76
2021/09/10 10:29:45;;;;;;;;;;;21.40;75.60;;;;;;5024353;28;1235;-76
2021/09/10 10:32:11;;;;;;;;;;;21.50;74.30;;;;;;5027076;28;1147;-77
2021/09/10 10:34:57;;;;;;;;;;;21.50;73.80;;;;;;5017034;28;1322;-77
2021/09/10 10:37:38;;;;;;;;;;;21.50;73.40;;;;;;5013650;28;1310;-77
2021/09/10 10:40:37;;;;;;;;;;;21.50;73.10;;;;;;5014416;28;1333;-76
2021/09/10 10:43:26;;;;;;;;;;;21.50;73.10;;;;;;5009152;28;1374;-75
2021/09/10 10:45:54;;;;;;;;;;;21.50;73.60;;;;;;5012690;28;1313;-75
2021/09/10 10:48:35;;;;;;;;;;;21.50;73.20;;;;;;5014190;28;1283;-75
2021/09/10 10:51:13;;;;;;;;;;;21.50;73.30;;;;;;4994416;28;1371;-72
2021/09/10 10:53:44;;;;;;;;;;;21.40;73.50;;;;;;5007944;28;1354;-76
2021/09/10 10:56:22;;;;;;;;;;;21.50;73.60;;;;;;5014175;28;1178;-77
2021/09/10 10:59:06;;;;;;;;;;;21.50;75.80;;;;;;5013474;28;1918;-76
2021/09/10 11:01:31;;;;;;;;;;;21.60;74.70;;;;;;5013961;28;1072;-77
2021/09/10 11:03:57;;;;;;;;;;;21.50;73.70;;;;;;5014049;28;1374;-77
2021/09/10 11:06:26;;;;;;;;;;;21.60;74.20;;;;;;5012123;28;1325;-77
2021/09/10 11:08:51;;;;;;;;;;;21.60;74.90;;;;;;5012195;28;1316;-77
2021/09/10 11:11:17;;;;;;;;;;;21.70;74.80;;;;;;5013891;28;1256;-76
2021/09/10 11:13:42;;;;;;;;;;;21.70;73.90;;;;;;4995891;28;1367;-76
2021/09/10 11:16:11;;;;;;;;;;;21.70;75.60;;;;;;5013437;28;1378;-77
2021/09/10 11:18:37;;;;;;;;;;;21.70;74.40;;;;;;5012693;28;1975;-77
2021/09/10 11:21:06;;;;;;;;;;;21.70;73.80;;;;;;5013355;28;1140;-78
2021/09/10 11:23:32;;;;;;;;;;;21.70;73.90;;;;;;5012652;28;1383;-76
2021/09/10 11:25:58;;;;;;;;;;;21.70;74.00;;;;;;5014033;28;1263;-77
2021/09/10 11:28:28;;;;;;;;;;;21.70;74.20;;;;;;5013430;28;1325;-77
2021/09/10 11:30:53;;;;;;;;;;;21.70;74.20;;;;;;5012349;28;1092;-77
2021/09/10 11:33:18;;;;;;;;;;;21.70;74.50;;;;;;5012055;28;1354;-77
2021/09/10 11:35:45;;;;;;;;;;;21.70;74.20;;;;;;5011787;28;1365;-75
2021/09/10 11:38:12;;;;;;;;;;;21.70;73.70;;;;;;5012268;28;1997;-77
2021/09/10 11:40:37;;;;;;;;;;;21.70;73.70;;;;;;5013743;28;1268;-77
2021/09/10 11:43:07;;;;;;;;;;;21.70;74.40;;;;;;5013224;28;2093;-77
2021/09/10 11:45:38;;;;;;;;;;;21.60;73.80;;;;;;5012092;28;1260;-77
2021/09/10 11:48:04;;;;;;;;;;;21.60;74.10;;;;;;5013079;28;1366;-77
2021/09/10 11:50:48;;;;;;;;;;;21.70;74.10;;;;;;5014129;28;1294;-77
2021/09/10 11:53:14;;;;;;;;;;;21.60;74.00;;;;;;5013794;28;1311;-77
2021/09/10 11:55:49;;;;;;;;;;;21.70;75.80;;;;;;5013164;28;1383;-77
2021/09/10 11:58:15;;;;;;;;;;;21.70;75.00;;;;;;4996950;28;1903;-77
2021/09/10 12:00:40;;;;;;;;;;;21.70;74.10;;;;;;5014821;28;1113;-77
2021/09/10 12:03:07;;;;;;;;;;;21.70;74.40;;;;;;5013587;28;1281;-77
2021/09/10 12:05:32;;;;;;;;;;;21.70;74.90;;;;;;5015218;28;1299;-77
2021/09/10 12:07:58;;;;;;;;;;;21.70;74.80;;;;;;5017244;28;1309;-78
2021/09/10 12:10:42;;;;;;;;;;;21.70;75.00;;;;;;5018281;28;1570;-77
2021/09/10 12:13:08;;;;;;;;;;;21.70;75.20;;;;;;5018512;28;1521;-77
2021/09/10 12:15:34;;;;;;;;;;;21.70;74.70;;;;;;5018303;28;1275;-75
2021/09/10 12:18:06;;;;;;;;;;;21.70;74.60;;;;;;5017763;28;1969;-77
2021/09/10 12:20:31;;;;;;;;;;;21.70;74.50;;;;;;5017272;28;1386;-78
2021/09/10 12:22:59;;;;;;;;;;;21.70;74.30;;;;;;5017474;28;1270;-77
2021/09/10 12:25:28;;;;;;;;;;;21.70;74.40;;;;;;5018673;28;1175;-77
2021/09/10 12:28:11;;;;;;;;;;;21.70;74.30;;;;;;5014863;28;1382;-77
2021/09/10 12:30:36;;;;;;;;;;;21.70;74.30;;;;;;5017828;28;1297;-76
2021/09/10 12:33:02;;;;;;;;;;;21.70;74.30;;;;;;5021131;28;1296;-78
2021/09/10 12:35:27;;;;;;;;;;;21.70;74.70;;;;;;5017602;28;1301;-76
2021/09/10 12:37:53;;;;;;;;;;;21.70;74.60;;;;;;5015747;28;1965;-76
2021/09/10 12:40:19;;;;;;;;;;;21.70;74.60;;;;;;5016040;28;1049;-76
2021/09/10 12:42:44;;;;;;;;;;;21.70;74.60;;;;;;5014645;28;1382;-76
2021/09/10 12:45:10;;;;;;;;;;;21.70;74.40;;;;;;5016137;28;1076;-76
2021/09/10 12:47:35;;;;;;;;;;;21.70;74.90;;;;;;5015754;28;1085;-75
2021/09/10 12:50:01;;;;;;;;;;;21.70;74.90;;;;;;5016142;28;1265;-77
2021/09/10 12:52:26;;;;;;;;;;;21.70;74.70;;;;;;5015916;28;1112;-76
2021/09/10 12:54:51;;;;;;;;;;;21.70;75.00;;;;;;5015606;28;1181;-76
2021/09/10 12:57:17;;;;;;;;;;;21.70;75.50;;;;;;5015727;28;1158;-76
2021/09/10 12:59:42;;;;;;;;;;;21.60;75.10;;;;;;5015895;28;1910;-76
2021/09/10 13:02:12;;;;;;;;;;;21.60;74.90;;;;;;5016170;28;1072;-76
2021/09/10 13:04:38;;;;;;;;;;;21.60;75.00;;;;;;5015888;28;1195;-76
2021/09/10 13:07:03;;;;;;;;;;;21.50;74.60;;;;;;5014492;28;1159;-76
2021/09/10 13:09:29;;;;;;;;;;;21.50;74.40;;;;;;5018094;28;1071;-77
2021/09/10 13:11:54;;;;;;;;;;;21.50;74.50;;;;;;5016719;28;1526;-77
2021/09/10 13:14:19;;;;;;;;;;;21.40;74.50;;;;;;5017053;28;1345;-77
2021/09/10 13:16:45;;;;;;;;;;;21.50;74.60;;;;;;5015085;28;1064;-77
2021/09/10 13:19:10;;;;;;;;;;;21.40;74.40;;;;;;5001417;28;1948;-77
2021/09/10 13:21:36;;;;;;;;;;;21.40;74.40;;;;;;5022213;28;1037;-78
2021/09/10 13:24:01;;;;;;;;;;;21.40;74.40;;;;;;5020346;28;1187;-77
2021/09/10 13:26:26;;;;;;;;;;;21.40;74.30;;;;;;5017762;28;1005;-77
2021/09/10 13:28:52;;;;;;;;;;;21.40;74.30;;;;;;5017476;28;1175;-77
2021/09/10 13:31:17;;;;;;;;;;;21.30;74.20;;;;;;5001304;28;1308;-77
2021/09/10 13:33:43;;;;;;;;;;;21.40;74.30;;;;;;5000138;28;1246;-77
2021/09/10 13:36:08;;;;;;;;;;;21.40;74.20;;;;;;5015336;28;1053;-77
2021/09/10 13:38:36;;;;;;;;;;;21.30;74.10;;;;;;5013660;28;2004;-77
2021/09/10 13:41:01;;;;;;;;;;;21.30;74.00;;;;;;5015185;28;1045;-77
2021/09/10 13:43:27;;;;;;;;;;;21.30;74.00;;;;;;5013624;28;1366;-77
2021/09/10 13:45:52;;;;;;;;;;;21.30;74.00;;;;;;5013338;28;958;-77
2021/09/10 13:48:18;;;;;;;;;;;21.30;74.00;;;;;;5014760;28;1104;-77
2021/09/10 13:50:44;;;;;;;;;;;21.30;73.90;;;;;;5014844;28;1138;-77
2021/09/10 13:53:10;;;;;;;;;;;21.30;74.60;;;;;;5013299;28;1256;-76
2021/09/10 13:55:36;;;;;;;;;;;21.30;73.80;;;;;;5014373;28;1152;-76
2021/09/10 13:58:02;;;;;;;;;;;21.30;73.80;;;;;;4997114;28;1918;-75
2021/09/10 14:00:27;;;;;;;;;;;21.30;73.80;;;;;;5013349;28;1349;-75
2021/09/10 14:02:53;;;;;;;;;;;21.30;73.80;;;;;;5014537;28;1314;-75
2021/09/10 14:05:18;;;;;;;;;;;21.30;73.80;;;;;;5014413;28;1073;-75
2021/09/10 14:07:44;;;;;;;;;;;21.30;73.70;;;;;;5012960;28;1100;-75
2021/09/10 14:10:09;;;;;;;;;;;21.30;73.70;;;;;;5014171;28;1068;-77
2021/09/10 14:12:35;;;;;;;;;;;21.30;73.70;;;;;;4988513;28;1307;-77
2021/09/10 14:15:00;;;;;;;;;;;21.30;73.60;;;;;;5008289;28;1665;-76
2021/09/10 14:17:25;;;;;;;;;;;21.30;73.60;;;;;;5014075;28;1073;-76
2021/09/10 14:19:51;;;;;;;;;;;21.30;73.60;;;;;;5014165;28;1899;-74
2021/09/10 14:22:16;;;;;;;;;;;21.30;73.60;;;;;;5017835;28;1267;-78
2021/09/10 14:24:43;;;;;;;;;;;21.30;73.50;;;;;;5014411;28;1390;-77
2021/09/10 14:27:09;;;;;;;;;;;21.30;73.50;;;;;;5014292;28;1402;-77